GRZ523 Details

Departure: Eareckson Air Station (PASY)
Arrival: Ted Stevens Anchorage International Airport (PANC) at N/A
Route: SYA G8 ADK G1 ELF G12 HBT G2 RWO ODK AMOTT4
Notes:


Current Weather Information
PASY 171657Z 31003KT 10SM BKN011 BKN065 09/09 A2991 RMK AO2A BKN011 V SCT SLP129 T00900087 RVRNO
PANC 171653Z 35018G27KT 10SM FEW200 16/03 A3017 RMK AO2 PK WND 35027/1653 SLP218 T01560033